Time;durP1;ratioP1;P1;durP2;ratioP2;P2;SDS_P1;SDS_P2;PMS_P1;PMS_P2;Temp;Humidity;BMP_temperature;BMP_pressure;BME280_temperature;BME280_humidity;BME280_pressure;Samples;Min_cycle;Max_cycle;Signal;HPM_P1;HPM_P2
2022/09/12 00:00:36;;;;;;;14.07;10.05;;;13.80;99.90;;;;;;5016857;28;20120;-60
2022/09/12 00:03:01;;;;;;;11.73;10.13;;;13.80;99.90;;;;;;5021322;28;20045;-60
2022/09/12 00:05:27;;;;;;;13.50;10.93;;;13.80;99.90;;;;;;5022821;28;20021;-60
2022/09/12 00:07:52;;;;;;;15.13;12.07;;;13.80;99.90;;;;;;5020212;28;20040;-61
2022/09/12 00:10:18;;;;;;;18.20;12.50;;;13.80;99.90;;;;;;5021008;28;20033;-60
2022/09/12 00:12:44;;;;;;;19.58;13.30;;;13.90;99.90;;;;;;5020893;28;20026;-60
2022/09/12 00:15:10;;;;;;;17.50;11.75;;;13.80;99.90;;;;;;5029941;28;20056;-60
2022/09/12 00:17:37;;;;;;;15.02;11.13;;;13.80;99.90;;;;;;5020576;28;20038;-60
2022/09/12 00:20:08;;;;;;;15.95;11.57;;;13.80;99.90;;;;;;5021974;28;20064;-60
2022/09/12 00:22:34;;;;;;;12.98;11.32;;;13.80;99.90;;;;;;5018958;28;20136;-61
2022/09/12 00:25:00;;;;;;;15.32;11.23;;;13.80;99.90;;;;;;5020024;28;20087;-60
2022/09/12 00:27:26;;;;;;;13.23;11.02;;;13.80;99.90;;;;;;5028630;28;20417;-60
2022/09/12 00:29:52;;;;;;;12.82;10.48;;;13.80;99.90;;;;;;5030075;28;20090;-60
2022/09/12 00:32:17;;;;;;;14.27;11.00;;;13.80;99.90;;;;;;5020748;28;20041;-60
2022/09/12 00:34:43;;;;;;;13.55;11.05;;;13.70;99.90;;;;;;5022795;28;20242;-60
2022/09/12 00:37:09;;;;;;;17.63;11.50;;;13.70;99.90;;;;;;5022155;28;20042;-60
2022/09/12 00:39:34;;;;;;;15.48;11.15;;;13.60;99.90;;;;;;5022678;28;20128;-60
2022/09/12 00:42:00;;;;;;;15.43;11.55;;;13.70;99.90;;;;;;5022313;28;20045;-59
2022/09/12 00:44:25;;;;;;;13.48;10.82;;;13.70;99.90;;;;;;5016959;28;20034;-60
2022/09/12 00:46:59;;;;;;;15.85;11.48;;;13.60;99.90;;;;;;5016731;28;20477;-60
2022/09/12 00:49:32;;;;;;;14.10;10.77;;;13.70;99.90;;;;;;5005434;28;20539;-60
2022/09/12 00:52:25;;;;;;;14.50;11.18;;;13.70;99.90;;;;;;5028034;28;20467;-60
2022/09/12 00:55:03;;;;;;;17.07;10.73;;;13.70;99.90;;;;;;5021643;28;20042;-60
2022/09/12 00:57:34;;;;;;;14.23;10.55;;;13.60;99.90;;;;;;5029782;28;20030;-60
2022/09/12 01:00:11;;;;;;;12.73;10.60;;;13.60;99.90;;;;;;5026142;28;20033;-60
2022/09/12 01:02:36;;;;;;;12.88;10.68;;;13.60;99.90;;;;;;5026631;28;20037;-60
2022/09/12 01:05:02;;;;;;;13.20;10.75;;;13.50;99.90;;;;;;5024366;28;20052;-60
2022/09/12 01:07:28;;;;;;;13.60;10.65;;;13.50;99.90;;;;;;5030862;28;20053;-60
2022/09/12 01:09:54;;;;;;;14.13;10.77;;;13.40;99.90;;;;;;5033107;28;20488;-60
2022/09/12 01:12:20;;;;;;;13.85;10.75;;;13.40;99.90;;;;;;5031085;28;20116;-60
2022/09/12 01:14:46;;;;;;;15.68;11.00;;;13.50;99.90;;;;;;5012161;28;20103;-60
2022/09/12 01:17:15;;;;;;;13.82;10.05;;;13.40;99.90;;;;;;5023448;28;20029;-61
2022/09/12 01:20:14;;;;;;;15.55;11.52;;;13.40;99.90;;;;;;5028279;28;20041;-60
2022/09/12 01:22:53;;;;;;;13.30;11.18;;;13.40;99.90;;;;;;5022859;28;20116;-60
2022/09/12 01:25:30;;;;;;;14.45;11.25;;;13.50;99.90;;;;;;5017925;28;20688;-60
2022/09/12 01:28:10;;;;;;;13.00;10.85;;;13.40;99.90;;;;;;5029611;28;20091;-60
2022/09/12 01:30:44;;;;;;;16.63;11.18;;;13.40;99.90;;;;;;5028199;28;20041;-60
2022/09/12 01:33:15;;;;;;;15.50;11.23;;;13.30;99.90;;;;;;5025570;28;20907;-60
2022/09/12 01:36:15;;;;;;;15.80;11.38;;;13.30;99.90;;;;;;5026320;28;20120;-60
2022/09/12 01:38:55;;;;;;;16.13;11.73;;;13.30;99.90;;;;;;5016145;28;20615;-60
2022/09/12 01:41:26;;;;;;;16.70;11.73;;;13.20;99.90;;;;;;5023283;28;20030;-60
2022/09/12 01:44:08;;;;;;;14.48;10.55;;;13.20;99.90;;;;;;5018172;28;20462;-60
2022/09/12 01:47:01;;;;;;;15.30;11.35;;;13.20;99.90;;;;;;5024356;28;20033;-61
2022/09/12 01:49:56;;;;;;;16.33;10.77;;;13.30;99.90;;;;;;5026728;28;20056;-60
2022/09/12 01:52:31;;;;;;;17.38;10.98;;;13.30;99.90;;;;;;5029777;28;20173;-60
2022/09/12 01:55:05;;;;;;;14.68;11.00;;;13.30;99.90;;;;;;5034301;28;21187;-60
2022/09/12 01:57:36;;;;;;;15.57;10.95;;;13.30;99.90;;;;;;5028194;28;20061;-60
2022/09/12 02:00:06;;;;;;;15.30;10.63;;;13.20;99.90;;;;;;5029237;28;20025;-59
2022/09/12 02:02:37;;;;;;;18.35;11.57;;;13.20;99.90;;;;;;5031154;28;20090;-60
2022/09/12 02:05:11;;;;;;;17.55;12.23;;;13.20;99.90;;;;;;5027455;28;20117;-60
2022/09/12 02:07:43;;;;;;;21.83;13.25;;;13.10;99.90;;;;;;5022931;28;20544;-60
2022/09/12 02:10:22;;;;;;;20.33;13.43;;;13.00;99.90;;;;;;5024853;28;20091;-60
2022/09/12 02:13:07;;;;;;;18.50;12.70;;;13.00;99.90;;;;;;5026304;28;20096;-60
2022/09/12 02:15:38;;;;;;;15.82;12.48;;;13.00;99.90;;;;;;5035228;28;20511;-60
2022/09/12 02:18:05;;;;;;;15.75;11.57;;;13.00;99.90;;;;;;5006538;28;20042;-60
2022/09/12 02:20:35;;;;;;;15.75;11.73;;;13.00;99.90;;;;;;5022838;28;20374;-60
2022/09/12 02:23:05;;;;;;;18.08;12.95;;;13.00;99.90;;;;;;5019502;28;20037;-60
2022/09/12 02:25:31;;;;;;;17.70;13.98;;;13.10;99.90;;;;;;5020332;28;20675;-60
2022/09/12 02:28:08;;;;;;;20.60;14.30;;;13.10;99.90;;;;;;5018116;28;20128;-60
2022/09/12 02:30:42;;;;;;;20.48;14.15;;;13.00;99.90;;;;;;5025883;28;20053;-60
2022/09/12 02:33:31;;;;;;;19.38;14.45;;;13.00;99.90;;;;;;5019895;28;20041;-61
2022/09/12 02:36:22;;;;;;;25.08;14.38;;;13.00;99.90;;;;;;5021583;28;20034;-60
2022/09/12 02:38:49;;;;;;;19.67;13.75;;;13.00;99.90;;;;;;5025899;28;20091;-60
2022/09/12 02:41:18;;;;;;;18.88;12.43;;;13.00;99.90;;;;;;5015957;28;20512;-61
2022/09/12 02:43:44;;;;;;;23.63;15.30;;;12.80;99.90;;;;;;5005672;28;20519;-60
2022/09/12 02:46:16;;;;;;;21.30;14.13;;;12.80;99.90;;;;;;5016047;28;20037;-60
2022/09/12 02:48:42;;;;;;;20.20;13.18;;;12.90;99.90;;;;;;5022637;28;20648;-60
2022/09/12 02:51:09;;;;;;;18.23;12.70;;;12.90;99.90;;;;;;5015966;28;20034;-59
2022/09/12 02:53:36;;;;;;;18.92;12.60;;;13.00;99.90;;;;;;5024637;28;20072;-60
2022/09/12 02:56:06;;;;;;;17.95;13.73;;;13.00;99.90;;;;;;5019969;28;20084;-60
2022/09/12 02:58:33;;;;;;;21.23;14.60;;;12.90;99.90;;;;;;5019615;28;20331;-59
2022/09/12 03:01:14;;;;;;;21.33;15.13;;;12.90;99.90;;;;;;5022571;28;20033;-60
2022/09/12 03:04:08;;;;;;;24.17;15.80;;;12.90;99.90;;;;;;5020161;28;20492;-60
2022/09/12 03:06:51;;;;;;;19.35;14.43;;;12.80;99.90;;;;;;5021682;28;20445;-60
2022/09/12 03:09:46;;;;;;;29.00;18.40;;;12.60;99.90;;;;;;5020357;28;20057;-60
2022/09/12 03:12:49;;;;;;;29.52;18.63;;;12.80;99.90;;;;;;5020472;28;20025;-58
2022/09/12 03:15:59;;;;;;;28.00;18.02;;;12.70;99.90;;;;;;5021627;28;20111;-60
2022/09/12 03:18:50;;;;;;;32.22;19.23;;;12.70;99.90;;;;;;5022953;28;20037;-60
2022/09/12 03:21:46;;;;;;;28.13;19.58;;;12.70;99.90;;;;;;5021980;28;20485;-60
2022/09/12 03:24:28;;;;;;;32.42;20.27;;;12.70;99.90;;;;;;5006978;28;20496;-60
2022/09/12 03:26:57;;;;;;;30.13;20.30;;;12.70;99.90;;;;;;5023470;28;20055;-60
2022/09/12 03:29:24;;;;;;;28.95;18.40;;;12.70;99.90;;;;;;5020089;28;20045;-60
2022/09/12 03:31:56;;;;;;;27.30;18.50;;;12.70;99.90;;;;;;5018912;28;20405;-60
2022/09/12 03:34:24;;;;;;;31.00;20.33;;;12.70;99.90;;;;;;5016374;28;20041;-60
2022/09/12 03:36:50;;;;;;;31.15;19.95;;;12.80;99.90;;;;;;5023533;28;20037;-60
2022/09/12 03:39:17;;;;;;;32.40;20.77;;;12.80;99.90;;;;;;5018189;28;20030;-60
2022/09/12 03:41:42;;;;;;;34.60;21.30;;;12.80;99.90;;;;;;5006588;28;20037;-60
2022/09/12 03:44:08;;;;;;;28.38;19.55;;;12.80;99.90;;;;;;5016167;28;20080;-60
2022/09/12 03:46:34;;;;;;;26.75;18.88;;;12.80;99.90;;;;;;5017524;28;20770;-60
2022/09/12 03:48:59;;;;;;;29.17;19.90;;;12.90;99.90;;;;;;5019613;28;20665;-60
2022/09/12 03:51:25;;;;;;;31.58;20.45;;;12.70;99.90;;;;;;5026523;28;20041;-59
2022/09/12 03:53:50;;;;;;;34.03;22.23;;;12.60;99.90;;;;;;5022263;28;20131;-60
2022/09/12 03:56:18;;;;;;;32.85;21.00;;;12.60;99.90;;;;;;5029191;28;20079;-60
2022/09/12 03:58:44;;;;;;;33.70;21.58;;;12.60;99.90;;;;;;5023908;28;20115;-60
2022/09/12 04:01:17;;;;;;;33.72;21.90;;;12.60;99.90;;;;;;5024092;28;20033;-60
2022/09/12 04:03:43;;;;;;;;;;;12.60;99.90;;;;;;5021239;28;20375;-60
2022/09/12 04:06:12;;;;;;;37.55;22.95;;;12.70;99.90;;;;;;5011240;28;20390;-60
2022/09/12 04:08:38;;;;;;;36.80;21.75;;;12.70;99.90;;;;;;5020285;28;20444;-60
2022/09/12 04:11:12;;;;;;;38.28;23.00;;;12.70;99.90;;;;;;5002076;28;20026;-60
2022/09/12 04:13:39;;;;;;;36.63;22.77;;;12.70;99.90;;;;;;5026027;28;20033;-60
2022/09/12 04:16:06;;;;;;;34.35;21.15;;;12.60;99.90;;;;;;5022270;28;20057;-60
2022/09/12 04:18:32;;;;;;;32.35;20.85;;;12.60;99.90;;;;;;5020898;28;20061;-60
2022/09/12 04:21:02;;;;;;;32.95;20.70;;;12.50;99.90;;;;;;5022497;28;20568;-60
2022/09/12 04:23:27;;;;;;;31.42;20.48;;;12.60;99.90;;;;;;5013830;28;20634;-60
2022/09/12 04:25:55;;;;;;;33.40;20.98;;;12.50;99.90;;;;;;5020655;28;20120;-59
2022/09/12 04:28:20;;;;;;;34.58;22.42;;;12.60;99.90;;;;;;5021776;28;20056;-60
2022/09/12 04:30:46;;;;;;;38.72;23.30;;;12.60;99.90;;;;;;5022876;28;20034;-60
2022/09/12 04:33:11;;;;;;;34.85;23.10;;;12.60;99.90;;;;;;5020156;28;20044;-59
2022/09/12 04:35:37;;;;;;;34.90;23.58;;;12.60;99.90;;;;;;5018234;28;20029;-60
2022/09/12 04:38:02;;;;;;;36.05;22.45;;;12.60;99.90;;;;;;5024596;28;20041;-60
2022/09/12 04:40:29;;;;;;;36.70;23.77;;;12.60;99.90;;;;;;5019153;28;20120;-60
2022/09/12 04:42:55;;;;;;;35.47;22.65;;;12.60;99.90;;;;;;5022414;28;20088;-59
2022/09/12 04:45:21;;;;;;;35.58;22.05;;;12.60;99.90;;;;;;5014737;28;20465;-60
2022/09/12 04:47:47;;;;;;;35.30;22.27;;;12.60;99.90;;;;;;5020112;28;20092;-60
2022/09/12 04:50:13;;;;;;;36.35;23.88;;;12.60;99.90;;;;;;5022640;28;20037;-60
2022/09/12 04:52:40;;;;;;;38.53;22.77;;;12.70;99.90;;;;;;5019007;28;20044;-59
2022/09/12 04:55:06;;;;;;;40.92;23.80;;;12.70;99.90;;;;;;5020943;28;20047;-60
2022/09/12 04:57:32;;;;;;;39.10;24.48;;;12.80;99.90;;;;;;5019314;28;20701;-60
2022/09/12 04:59:58;;;;;;;35.85;23.63;;;12.80;99.90;;;;;;5024175;28;20705;-60
2022/09/12 05:02:24;;;;;;;40.22;24.35;;;12.90;99.90;;;;;;5019370;28;20500;-60
2022/09/12 05:04:51;;;;;;;40.97;25.20;;;12.80;99.90;;;;;;5014098;28;20112;-59
2022/09/12 05:07:18;;;;;;;36.47;23.63;;;12.90;99.90;;;;;;5016184;28;20111;-60
2022/09/12 05:09:44;;;;;;;40.13;24.88;;;13.10;99.90;;;;;;5014235;28;20038;-60
2022/09/12 05:12:09;;;;;;;39.58;24.88;;;13.10;99.90;;;;;;5015138;28;20049;-60
2022/09/12 05:14:35;;;;;;;38.30;24.85;;;13.20;99.90;;;;;;5005166;28;20840;-60
2022/09/12 05:17:02;;;;;;;46.90;26.30;;;13.20;99.90;;;;;;5018357;28;20037;-60
2022/09/12 05:19:29;;;;;;;38.67;24.90;;;13.20;99.90;;;;;;5018120;28;20037;-59
2022/09/12 05:21:55;;;;;;;40.55;25.50;;;13.30;99.90;;;;;;5023266;28;20041;-60
2022/09/12 05:24:21;;;;;;;35.35;23.02;;;13.30;99.90;;;;;;5020016;28;20152;-60
2022/09/12 05:26:47;;;;;;;41.35;24.95;;;13.40;99.90;;;;;;5021006;28;20120;-60
2022/09/12 05:29:12;;;;;;;38.70;25.17;;;13.40;99.90;;;;;;5021471;28;20638;-60
2022/09/12 05:31:38;;;;;;;38.60;25.45;;;13.50;99.90;;;;;;5019278;28;20117;-60
2022/09/12 05:34:05;;;;;;;40.00;23.88;;;13.50;99.90;;;;;;5013980;28;20053;-60
2022/09/12 05:36:32;;;;;;;39.42;25.48;;;13.60;99.90;;;;;;5022821;28;20037;-60
2022/09/12 05:38:58;;;;;;;40.30;25.73;;;13.70;99.90;;;;;;5022741;28;20025;-60
2022/09/12 05:41:28;;;;;;;40.97;25.23;;;13.70;99.90;;;;;;5024896;28;20113;-60
2022/09/12 05:43:59;;;;;;;38.55;23.67;;;13.70;99.90;;;;;;5026420;28;20037;-60
2022/09/12 05:46:27;;;;;;;40.38;24.73;;;13.80;99.90;;;;;;5010298;28;20030;-59
2022/09/12 05:48:54;;;;;;;40.30;26.77;;;13.80;99.90;;;;;;5016862;28;20924;-60
2022/09/12 05:51:22;;;;;;;40.47;24.50;;;13.80;99.90;;;;;;5020139;28;20040;-60
2022/09/12 05:53:58;;;;;;;39.38;25.02;;;13.90;99.90;;;;;;5018099;28;20029;-60
2022/09/12 05:56:29;;;;;;;35.42;23.50;;;14.00;99.90;;;;;;5023191;28;20030;-60
2022/09/12 05:59:00;;;;;;;38.13;23.77;;;14.00;99.90;;;;;;5006008;28;20600;-60
2022/09/12 06:01:28;;;;;;;38.15;24.40;;;14.20;99.90;;;;;;5016521;28;21076;-60
2022/09/12 06:03:56;;;;;;;37.92;23.10;;;14.20;99.90;;;;;;5020532;28;20408;-60
2022/09/12 06:06:24;;;;;;;38.08;23.38;;;14.30;99.90;;;;;;5023748;28;20030;-59
2022/09/12 06:08:51;;;;;;;37.55;23.83;;;14.40;99.90;;;;;;5023930;28;20362;-60
2022/09/12 06:11:21;;;;;;;35.00;22.42;;;14.40;99.90;;;;;;5023487;28;20246;-60
2022/09/12 06:13:47;;;;;;;36.42;21.60;;;14.50;99.90;;;;;;5019281;28;20061;-60
2022/09/12 06:16:16;;;;;;;37.08;23.65;;;14.70;99.90;;;;;;5016114;28;20702;-60
2022/09/12 06:18:47;;;;;;;37.22;22.33;;;14.70;99.90;;;;;;5004109;28;20443;-60
2022/09/12 06:21:13;;;;;;;34.25;22.90;;;14.80;99.90;;;;;;5023942;28;20049;-60
2022/09/12 06:23:39;;;;;;;37.40;24.55;;;14.80;99.90;;;;;;5019375;28;20033;-61
2022/09/12 06:26:07;;;;;;;39.38;23.10;;;15.00;99.90;;;;;;5021606;28;20834;-60
2022/09/12 06:28:38;;;;;;;39.05;23.98;;;15.00;99.90;;;;;;5022622;28;20057;-60
2022/09/12 06:31:12;;;;;;;38.28;23.98;;;15.10;99.90;;;;;;5021296;28;20037;-60
2022/09/12 06:33:40;;;;;;;36.35;23.60;;;15.20;99.90;;;;;;5018125;28;20033;-59
2022/09/12 06:36:12;;;;;;;34.83;23.42;;;15.30;99.90;;;;;;5025814;28;20034;-60
2022/09/12 06:38:38;;;;;;;37.15;24.83;;;15.30;99.90;;;;;;5026317;28;20038;-60
2022/09/12 06:41:11;;;;;;;40.40;25.13;;;15.50;99.90;;;;;;5025756;28;20064;-60
2022/09/12 06:43:37;;;;;;;40.78;24.63;;;15.50;99.90;;;;;;5004967;28;20057;-61
2022/09/12 06:46:04;;;;;;;34.03;24.25;;;15.60;99.90;;;;;;5023168;28;20033;-61
2022/09/12 06:48:29;;;;;;;38.42;24.45;;;15.60;99.90;;;;;;5018198;28;20042;-60
2022/09/12 06:51:16;;;;;;;42.10;24.95;;;15.70;99.90;;;;;;5019940;28;20049;-60
2022/09/12 06:53:43;;;;;;;41.95;26.58;;;15.80;99.90;;;;;;5000891;28;20033;-61
2022/09/12 06:56:14;;;;;;;40.58;26.65;;;15.90;99.90;;;;;;5021260;28;20493;-60
2022/09/12 06:58:41;;;;;;;43.08;27.90;;;15.90;99.90;;;;;;5024290;28;20038;-61
2022/09/12 07:01:14;;;;;;;45.75;27.15;;;16.00;99.90;;;;;;5021729;28;20445;-60
2022/09/12 07:03:40;;;;;;;;;;;15.90;99.90;;;;;;5023468;28;20136;-61
2022/09/12 07:06:14;;;;;;;45.90;29.40;;;15.90;99.90;;;;;;5023781;28;20348;-61
2022/09/12 07:08:40;;;;;;;50.97;30.50;;;16.00;99.90;;;;;;5021811;28;20048;-60
2022/09/12 07:11:24;;;;;;;53.58;31.85;;;16.10;99.90;;;;;;5023870;28;20045;-61
2022/09/12 07:13:53;;;;;;;54.55;31.58;;;16.20;99.90;;;;;;5022013;28;20044;-60
2022/09/12 07:16:18;;;;;;;56.53;33.55;;;16.30;99.90;;;;;;5009904;28;20051;-61
2022/09/12 07:18:48;;;;;;;110.35;76.22;;;16.30;99.90;;;;;;5021470;28;20041;-61
2022/09/12 07:21:14;;;;;;;58.40;34.90;;;16.40;99.90;;;;;;5001378;28;20045;-61
2022/09/12 07:23:41;;;;;;;56.72;32.03;;;16.50;99.90;;;;;;5023734;28;20526;-61
2022/09/12 07:26:10;;;;;;;53.30;31.83;;;16.60;99.90;;;;;;5022164;28;20120;-60
2022/09/12 07:28:36;;;;;;;49.05;30.50;;;16.60;99.90;;;;;;5023758;28;20065;-60
2022/09/12 07:31:13;;;;;;;47.33;29.67;;;16.60;99.90;;;;;;5018699;28;20120;-61
2022/09/12 07:33:40;;;;;;;51.30;30.13;;;16.70;99.90;;;;;;5019901;28;20033;-60
2022/09/12 07:36:10;;;;;;;53.90;31.98;;;16.80;99.90;;;;;;5023889;28;20033;-60
2022/09/12 07:38:36;;;;;;;43.83;27.65;;;16.80;99.90;;;;;;5023791;28;20400;-61
2022/09/12 07:41:19;;;;;;;42.80;26.20;;;16.70;99.90;;;;;;5024740;28;20041;-61
2022/09/12 07:43:46;;;;;;;40.65;24.40;;;16.80;99.90;;;;;;5018836;28;20064;-61
2022/09/12 07:46:13;;;;;;;33.88;22.67;;;16.70;99.90;;;;;;5019279;28;20128;-60
2022/09/12 07:48:39;;;;;;;32.92;22.83;;;16.70;99.90;;;;;;5019970;28;20581;-61
2022/09/12 07:51:07;;;;;;;34.22;24.10;;;16.70;99.90;;;;;;5017868;28;20041;-61
2022/09/12 07:53:39;;;;;;;35.75;22.45;;;16.70;99.90;;;;;;5017096;28;20397;-61
2022/09/12 07:56:07;;;;;;;36.50;22.35;;;16.70;99.90;;;;;;5023005;28;20610;-61
2022/09/12 07:58:35;;;;;;;34.65;22.98;;;16.80;99.90;;;;;;5015035;28;20034;-61
2022/09/12 08:01:01;;;;;;;31.20;21.65;;;16.80;99.90;;;;;;5023972;28;20366;-61
2022/09/12 08:03:27;;;;;;;33.47;21.52;;;16.80;99.90;;;;;;5019990;28;20045;-61
2022/09/12 08:05:52;;;;;;;30.65;20.80;;;16.90;99.90;;;;;;5019352;28;20136;-61
2022/09/12 08:08:18;;;;;;;32.13;21.45;;;16.90;99.90;;;;;;5015456;28;20041;-61
2022/09/12 08:10:43;;;;;;;30.23;21.33;;;17.00;99.90;;;;;;5023621;28;20037;-61
2022/09/12 08:13:09;;;;;;;33.60;21.75;;;17.10;99.90;;;;;;5015938;28;20050;-61
2022/09/12 08:15:35;;;;;;;31.75;21.65;;;17.30;99.90;;;;;;5021821;28;20134;-60
2022/09/12 08:18:00;;;;;;;35.35;22.67;;;17.30;99.90;;;;;;5015900;28;20033;-60
2022/09/12 08:20:26;;;;;;;31.33;20.38;;;17.40;99.90;;;;;;5017129;28;20127;-61
2022/09/12 08:22:52;;;;;;;32.00;20.92;;;17.40;99.90;;;;;;5013314;28;20071;-61
2022/09/12 08:25:18;;;;;;;32.85;20.92;;;17.60;99.90;;;;;;5020876;28;20051;-61
2022/09/12 08:27:45;;;;;;;28.27;19.85;;;17.70;99.90;;;;;;5021954;28;20124;-60
2022/09/12 08:30:11;;;;;;;28.25;19.13;;;17.80;99.90;;;;;;5022544;28;20488;-61
2022/09/12 08:32:37;;;;;;;29.23;20.92;;;17.90;99.90;;;;;;5000305;28;20037;-61
2022/09/12 08:35:03;;;;;;;30.20;19.83;;;18.00;99.90;;;;;;5019344;28;20026;-61
2022/09/12 08:37:30;;;;;;;31.25;20.70;;;18.00;99.90;;;;;;5017694;28;20045;-61
2022/09/12 08:39:55;;;;;;;29.42;19.48;;;18.10;99.90;;;;;;5014950;28;20041;-61
2022/09/12 08:42:58;;;;;;;31.67;21.10;;;18.00;99.90;;;;;;5019626;28;20715;-62
2022/09/12 08:45:37;;;;;;;30.27;20.23;;;18.00;99.90;;;;;;5011625;28;20033;-61
2022/09/12 08:48:05;;;;;;;31.10;19.13;;;18.00;99.90;;;;;;5005696;28;20041;-61
2022/09/12 08:50:31;;;;;;;25.95;18.67;;;18.00;99.90;;;;;;5017541;28;20221;-61
2022/09/12 08:53:08;;;;;;;29.70;18.98;;;18.00;99.90;;;;;;5024517;28;20041;-61
2022/09/12 08:55:38;;;;;;;28.10;19.17;;;18.20;99.90;;;;;;5020236;28;20117;-61
2022/09/12 08:58:15;;;;;;;28.33;18.92;;;18.30;99.90;;;;;;5015656;28;20030;-60
2022/09/12 09:01:18;;;;;;;30.13;19.50;;;18.40;99.90;;;;;;5014113;28;20034;-61
2022/09/12 09:04:00;;;;;;;31.92;20.52;;;18.50;99.90;;;;;;5018895;28;20041;-61
2022/09/12 09:06:50;;;;;;;31.13;19.90;;;18.70;99.90;;;;;;5017918;28;20380;-61
2022/09/12 09:09:26;;;;;;;28.52;19.80;;;18.70;99.90;;;;;;5021235;28;20042;-61
2022/09/12 09:11:52;;;;;;;24.55;18.17;;;18.70;99.90;;;;;;5020875;28;20041;-61
2022/09/12 09:14:47;;;;;;;24.60;16.75;;;18.80;99.90;;;;;;5020766;28;20045;-60
2022/09/12 09:17:33;;;;;;;21.77;15.82;;;18.90;99.90;;;;;;5028403;28;20048;-62
2022/09/12 09:20:22;;;;;;;21.67;16.10;;;19.00;99.90;;;;;;5022393;28;20438;-61
2022/09/12 09:22:59;;;;;;;20.02;15.27;;;19.10;99.90;;;;;;5025549;28;20148;-61
2022/09/12 09:25:49;;;;;;;23.13;15.07;;;19.10;99.90;;;;;;5031220;28;20037;-61
2022/09/12 09:28:34;;;;;;;20.42;13.98;;;19.10;99.90;;;;;;5023394;28;20025;-62
2022/09/12 09:31:00;;;;;;;26.58;14.45;;;19.20;99.90;;;;;;5019483;28;20107;-61
2022/09/12 09:33:32;;;;;;;20.90;14.50;;;19.30;99.90;;;;;;5022954;28;20045;-61
2022/09/12 09:36:21;;;;;;;18.08;12.45;;;19.30;99.90;;;;;;5025455;28;20038;-61
2022/09/12 09:39:12;;;;;;;18.65;11.95;;;19.50;99.90;;;;;;5027131;28;20060;-61
2022/09/12 09:41:56;;;;;;;18.58;12.05;;;19.60;99.90;;;;;;5020230;28;20039;-61
2022/09/12 09:44:22;;;;;;;13.63;10.90;;;19.60;99.90;;;;;;5020664;28;20116;-61
2022/09/12 09:46:53;;;;;;;16.65;11.40;;;19.60;99.90;;;;;;5017523;28;20455;-61
2022/09/12 09:49:20;;;;;;;14.35;10.18;;;19.70;99.90;;;;;;5026351;28;20091;-61
2022/09/12 09:51:47;;;;;;;14.65;10.05;;;19.80;99.90;;;;;;5023607;28;20124;-61
2022/09/12 09:54:20;;;;;;;15.27;10.45;;;19.90;99.90;;;;;;5025884;28;20925;-61
2022/09/12 09:56:46;;;;;;;13.10;9.77;;;19.90;99.90;;;;;;5025792;28;20018;-61
2022/09/12 09:59:24;;;;;;;14.80;9.65;;;19.90;99.90;;;;;;5007182;28;20362;-61
2022/09/12 10:01:56;;;;;;;11.75;8.98;;;20.00;99.90;;;;;;5026916;28;20493;-61
2022/09/12 10:04:27;;;;;;;11.85;9.60;;;20.00;99.90;;;;;;5003403;28;20052;-61
2022/09/12 10:06:56;;;;;;;9.68;7.43;;;20.00;99.90;;;;;;5018471;28;20053;-61
2022/09/12 10:09:23;;;;;;;8.02;7.18;;;20.10;99.90;;;;;;5023773;28;20413;-61
2022/09/12 10:11:50;;;;;;;9.00;7.05;;;20.20;99.90;;;;;;5026116;28;20120;-61
2022/09/12 10:14:30;;;;;;;9.30;6.75;;;20.20;99.90;;;;;;5021906;28;20504;-61
2022/09/12 10:16:57;;;;;;;9.98;7.57;;;20.30;99.90;;;;;;5016603;28;20033;-61
2022/09/12 10:19:34;;;;;;;9.38;7.10;;;20.40;99.90;;;;;;5017366;28;20045;-61
2022/09/12 10:22:01;;;;;;;10.05;7.28;;;20.30;99.90;;;;;;5026374;28;20044;-61
2022/09/12 10:24:33;;;;;;;11.20;7.45;;;20.50;99.90;;;;;;5025635;28;20396;-61
2022/09/12 10:27:10;;;;;;;11.38;7.65;;;20.40;99.90;;;;;;5026499;28;20120;-61
2022/09/12 10:29:47;;;;;;;8.93;7.47;;;20.40;99.90;;;;;;5031434;28;20030;-61
2022/09/12 10:32:25;;;;;;;8.73;6.70;;;20.50;99.90;;;;;;5003452;28;20378;-62
2022/09/12 10:34:55;;;;;;;10.60;6.90;;;20.60;99.90;;;;;;5016985;28;20033;-61
2022/09/12 10:37:36;;;;;;;11.32;7.45;;;20.70;99.90;;;;;;5027047;28;20136;-62
2022/09/12 10:40:04;;;;;;;8.20;6.20;;;20.70;99.90;;;;;;5028478;28;20037;-61
2022/09/12 10:42:48;;;;;;;11.10;6.38;;;20.80;99.90;;;;;;5031461;28;20084;-61
2022/09/12 10:45:27;;;;;;;6.95;5.43;;;20.80;99.90;;;;;;5025188;28;20127;-61
2022/09/12 10:47:57;;;;;;;7.72;5.68;;;20.90;99.90;;;;;;5022985;28;20037;-61
2022/09/12 10:50:29;;;;;;;9.50;6.15;;;20.90;99.90;;;;;;5020948;28;20049;-62
2022/09/12 10:53:21;;;;;;;10.85;6.38;;;21.00;99.90;;;;;;5025035;28;20637;-61
2022/09/12 10:56:02;;;;;;;8.43;5.20;;;21.00;99.90;;;;;;5016037;28;20755;-61
2022/09/12 10:58:48;;;;;;;8.10;4.82;;;21.00;99.90;;;;;;5022127;28;20095;-61
2022/09/12 11:01:34;;;;;;;5.03;3.97;;;21.00;99.90;;;;;;5023190;28;20037;-61
2022/09/12 11:04:06;;;;;;;5.20;4.63;;;21.10;99.90;;;;;;5022734;28;20424;-61
2022/09/12 11:06:50;;;;;;;6.03;4.50;;;21.20;99.90;;;;;;5030434;28;20049;-61
2022/09/12 11:09:25;;;;;;;6.15;4.65;;;21.20;99.90;;;;;;5023005;28;20033;-61
2022/09/12 11:11:50;;;;;;;5.22;4.10;;;21.30;99.90;;;;;;5027475;28;20148;-61
2022/09/12 11:14:31;;;;;;;5.90;4.15;;;21.20;99.90;;;;;;5027101;28;20108;-61
2022/09/12 11:17:08;;;;;;;7.32;4.05;;;21.40;99.90;;;;;;5025092;28;20025;-61
2022/09/12 11:19:53;;;;;;;6.20;4.30;;;21.40;99.90;;;;;;5022730;28;20072;-61
2022/09/12 11:22:34;;;;;;;4.75;4.15;;;21.40;99.90;;;;;;5023660;28;20084;-61
2022/09/12 11:25:15;;;;;;;9.57;3.83;;;21.40;99.90;;;;;;5031766;28;20458;-62
2022/09/12 11:27:49;;;;;;;4.75;3.90;;;21.40;99.90;;;;;;5019312;28;20065;-62
2022/09/12 11:30:16;;;;;;;4.95;4.28;;;21.50;99.90;;;;;;5025504;28;20072;-62
2022/09/12 11:33:04;;;;;;;7.30;4.97;;;21.40;99.90;;;;;;5024774;28;20037;-61
2022/09/12 11:35:31;;;;;;;6.68;4.32;;;21.50;99.90;;;;;;5021096;28;20041;-62
2022/09/12 11:38:18;;;;;;;5.95;4.10;;;21.40;99.90;;;;;;5025946;28;20112;-61
2022/09/12 11:41:04;;;;;;;4.85;4.15;;;21.50;99.90;;;;;;5023192;28;20041;-61
2022/09/12 11:43:37;;;;;;;6.03;4.03;;;21.50;99.90;;;;;;5026610;28;20435;-61
2022/09/12 11:46:28;;;;;;;7.07;4.25;;;21.60;99.90;;;;;;5018028;28;20405;-62
2022/09/12 11:49:02;;;;;;;6.35;4.00;;;21.50;99.90;;;;;;5020830;28;20064;-61
2022/09/12 11:51:42;;;;;;;5.13;4.03;;;21.50;99.90;;;;;;5024531;28;20055;-61
2022/09/12 11:54:38;;;;;;;5.15;3.83;;;21.50;99.90;;;;;;5024074;28;20093;-61
2022/09/12 11:57:17;;;;;;;6.90;4.05;;;21.50;99.90;;;;;;5027138;28;20171;-61
2022/09/12 11:59:55;;;;;;;4.90;3.63;;;21.60;99.90;;;;;;5018035;28;20690;-61
2022/09/12 12:02:28;;;;;;;27.20;21.08;;;21.80;99.90;;;;;;5020012;28;20129;-58
2022/09/12 12:05:13;;;;;;;5.68;3.90;;;22.00;99.90;;;;;;5021925;28;20163;-61
2022/09/12 12:07:55;;;;;;;4.70;3.65;;;21.90;99.90;;;;;;5023818;28;20037;-61
2022/09/12 12:10:36;;;;;;;4.15;3.20;;;21.90;99.90;;;;;;5022175;28;20570;-61
2022/09/12 12:13:07;;;;;;;6.38;3.22;;;22.00;99.90;;;;;;5029700;28;20442;-61
2022/09/12 12:15:36;;;;;;;6.63;3.13;;;22.00;99.90;;;;;;5025387;28;20021;-61
2022/09/12 12:18:07;;;;;;;3.65;2.70;;;22.00;99.90;;;;;;5003145;28;20030;-60
2022/09/12 12:20:33;;;;;;;4.38;3.00;;;22.20;99.90;;;;;;5025790;28;20587;-61
2022/09/12 12:22:59;;;;;;;3.92;2.40;;;22.10;99.90;;;;;;5015218;28;20549;-61
2022/09/12 12:25:37;;;;;;;4.30;2.47;;;22.10;99.90;;;;;;5029329;28;20129;-61
2022/09/12 12:28:05;;;;;;;4.72;2.40;;;22.10;99.90;;;;;;5025073;28;20112;-61
2022/09/12 12:30:30;;;;;;;9.63;2.83;;;22.20;99.90;;;;;;5022775;28;20515;-61
2022/09/12 12:33:00;;;;;;;4.18;2.45;;;22.20;99.90;;;;;;5022694;28;20033;-61
2022/09/12 12:35:36;;;;;;;3.22;2.50;;;22.20;99.90;;;;;;5022998;28;20116;-61
2022/09/12 12:38:04;;;;;;;4.50;2.22;;;22.20;99.90;;;;;;5000901;28;20035;-61
2022/09/12 12:40:30;;;;;;;3.78;2.00;;;22.20;99.90;;;;;;5027665;28;20504;-61
2022/09/12 12:43:01;;;;;;;4.72;2.33;;;22.20;99.90;;;;;;5030462;28;20696;-61
2022/09/12 12:45:27;;;;;;;2.67;2.40;;;22.40;99.90;;;;;;5019805;28;20383;-61
2022/09/12 12:48:12;;;;;;;2.83;2.50;;;22.40;99.90;;;;;;5009386;28;20152;-61
2022/09/12 12:50:38;;;;;;;4.35;2.50;;;22.30;99.90;;;;;;5021963;28;20111;-61
2022/09/12 12:53:14;;;;;;;3.60;2.78;;;22.20;99.90;;;;;;5024802;28;20092;-61
2022/09/12 12:55:42;;;;;;;4.20;2.50;;;22.20;99.90;;;;;;5020279;28;20105;-61